Time;durP1;ratioP1;P1;durP2;ratioP2;P2;SDS_P1;SDS_P2;PMS_P1;PMS_P2;Temp;Humidity;BMP_temperature;BMP_pressure;BME280_temperature;BME280_humidity;BME280_pressure;Samples;Min_cycle;Max_cycle;Signal;HPM_P1;HPM_P2
2022/09/23 00:04:22;;;;;;;58.90;25.00;;;;;;;8.49;100.00;100921.96;663751;1280;139380;-95
2022/09/23 00:19:24;;;;;;;31.00;14.20;;;;;;;8.43;100.00;100915.38;665913;1278;139057;-93
2022/09/23 00:34:28;;;;;;;22.30;12.30;;;;;;;8.39;100.00;100910.04;668284;1277;139290;-95
2022/09/23 00:49:32;;;;;;;26.60;11.30;;;;;;;8.42;100.00;100909.84;666058;1277;139539;-95
2022/09/23 01:04:36;;;;;;;18.50;10.40;;;;;;;8.32;100.00;100909.64;666802;1277;140416;-96
2022/09/23 01:20:28;;;;;;;22.60;13.60;;;;;;;8.26;100.00;100905.91;668941;1277;139916;-95
2022/09/23 01:35:45;;;;;;;20.10;10.80;;;;;;;8.28;100.00;100899.97;673547;1277;140838;-96
2022/09/23 01:51:26;;;;;;;17.10;10.90;;;;;;;8.11;100.00;100896.79;673113;1277;139797;-95
2022/09/23 02:06:36;;;;;;;16.10;8.30;;;;;;;8.09;100.00;100901.23;668073;1279;141703;-94
2022/09/23 02:21:46;;;;;;;11.50;7.20;;;;;;;7.92;100.00;100894.90;668006;1279;140190;-94
2022/09/23 02:37:07;;;;;;;9.30;5.70;;;;;;;7.79;100.00;100897.55;668327;1279;140670;-94
2022/09/23 02:52:12;;;;;;;9.20;6.20;;;;;;;7.60;100.00;100893.36;668850;1279;137979;-94
2022/09/23 03:07:32;;;;;;;10.00;6.40;;;;;;;7.54;100.00;100885.58;668294;1279;139917;-95
2022/09/23 03:22:53;;;;;;;25.40;13.80;;;;;;;7.48;100.00;100875.16;669132;1277;139713;-95
2022/09/23 03:38:16;;;;;;;171.50;43.10;;;;;;;7.42;100.00;100878.52;668892;1277;140262;-94
2022/09/23 03:53:20;;;;;;;17.50;10.10;;;;;;;7.38;100.00;100878.79;669526;1277;140110;-94
2022/09/23 04:08:23;;;;;;;25.90;10.60;;;;;;;7.21;100.00;100871.74;671080;1277;902520;-92
2022/09/23 04:23:27;;;;;;;28.10;12.00;;;;;;;7.30;100.00;100866.96;670595;1277;139587;-93
2022/09/23 04:38:30;;;;;;;17.60;10.80;;;;;;;7.34;100.00;100865.30;671675;1280;138864;-93
2022/09/23 04:53:38;;;;;;;16.70;9.70;;;;;;;7.36;100.00;100864.30;671908;1280;139649;-95
2022/09/23 05:08:46;;;;;;;;;;;;;;;7.50;100.00;100863.92;668238;1279;140447;-90
2022/09/23 05:23:54;;;;;;;13.90;9.00;;;;;;;7.55;100.00;100859.77;666682;1280;127335;-94
2022/09/23 05:38:58;;;;;;;18.70;11.40;;;;;;;7.39;100.00;100859.05;667689;1280;138495;-95
2022/09/23 05:54:04;;;;;;;27.90;15.00;;;;;;;7.37;100.00;100870.69;668435;1277;141510;-93
2022/09/23 06:09:12;;;;;;;32.70;15.80;;;;;;;7.64;100.00;100865.25;663533;1277;140142;-95
2022/09/23 06:24:15;;;;;;;19.30;11.50;;;;;;;8.36;100.00;100873.14;666928;1277;140182;-94
2022/09/23 06:39:23;;;;;;;15.80;10.80;;;;;;;9.40;100.00;100866.98;661052;1277;139130;-94
2022/09/23 06:54:27;;;;;;;20.20;12.80;;;;;;;10.49;100.00;100868.70;660618;1277;139944;-91
2022/09/23 07:09:31;;;;;;;20.80;9.80;;;;;;;11.59;100.00;100885.34;658076;1277;139847;-90
2022/09/23 07:24:36;;;;;;;18.10;13.10;;;;;;;11.73;100.00;100878.02;658660;1277;140020;-93
2022/09/23 07:39:41;;;;;;;23.90;13.80;;;;;;;12.03;100.00;100870.79;663681;1277;140162;-95
2022/09/23 07:54:47;;;;;;;15.40;10.20;;;;;;;13.85;100.00;100863.67;664191;1277;141363;-94
2022/09/23 08:09:51;;;;;;;105.80;81.10;;;;;;;15.37;100.00;100860.05;667616;1278;139820;-95
2022/09/23 08:24:55;;;;;;;11.60;6.50;;;;;;;16.63;100.00;100855.55;671979;1277;139884;-96
2022/09/23 08:40:00;;;;;;;4.50;3.80;;;;;;;17.38;96.91;100849.28;668676;1277;139308;-93
2022/09/23 08:55:05;;;;;;;3.60;2.90;;;;;;;18.19;91.37;100842.05;665355;1277;140525;-93
2022/09/23 09:10:12;;;;;;;3.60;2.20;;;;;;;17.89;83.94;100827.58;660099;1277;138939;-92
2022/09/23 09:25:27;;;;;;;3.10;1.70;;;;;;;17.00;83.69;100829.48;659680;1277;138766;-90
2022/09/23 09:40:45;;;;;;;3.40;1.60;;;;;;;17.33;80.16;100823.55;659295;1277;140534;-90
2022/09/23 09:56:02;;;;;;;8.30;4.50;;;;;;;18.88;74.78;100820.96;659786;1277;139076;-92
2022/09/23 10:11:15;;;;;;;;;;;;;;;19.18;73.06;100805.09;658972;1277;139859;-90
2022/09/23 10:26:31;;;;;;;2.40;1.70;;;;;;;20.16;67.65;100792.63;659843;1277;127391;-88
2022/09/23 10:57:36;;;;;;;2.80;1.60;;;;;;;19.25;61.67;100775.13;661172;1280;139340;-89
2022/09/23 11:13:07;;;;;;;4.90;2.50;;;;;;;20.45;60.69;100769.84;662099;1279;140267;-89
2022/09/23 11:28:34;;;;;;;7.00;2.90;;;;;;;19.70;62.65;100756.73;667591;1277;140760;-90
2022/09/23 11:43:41;;;;;;;3.20;1.80;;;;;;;18.58;63.52;100747.39;659156;1278;138544;-89
2022/09/23 11:59:01;;;;;;;1.90;1.40;;;;;;;18.01;62.08;100746.84;658940;1278;140034;-85
2022/09/23 12:14:18;;;;;;;3.00;1.60;;;;;;;18.22;61.29;100733.91;658978;1277;138252;-89
2022/09/23 12:29:26;;;;;;;2.10;1.60;;;;;;;18.31;59.83;100718.17;659827;1277;139421;-88
2022/09/23 12:44:44;;;;;;;1.80;1.40;;;;;;;19.47;60.36;100710.01;659474;1277;138860;-88
2022/09/23 12:59:50;;;;;;;4.30;1.90;;;;;;;20.83;57.21;100704.55;660647;1277;138790;-88
2022/09/23 13:14:59;;;;;;;4.20;2.10;;;;;;;20.95;56.89;100697.62;659800;1277;138892;-89
2022/09/23 13:30:25;;;;;;;5.40;2.30;;;;;;;20.61;56.78;100686.27;658476;1277;140137;-88
2022/09/23 13:45:32;;;;;;;2.50;1.00;;;;;;;24.54;53.86;100670.26;659318;1277;139637;-91
2022/09/23 14:00:37;;;;;;;2.90;1.90;;;;;;;29.69;45.73;100647.20;658814;1277;139967;-90
2022/09/23 14:15:43;;;;;;;3.50;2.10;;;;;;;34.41;42.62;100625.52;659005;1277;139816;-91
2022/09/23 14:30:48;;;;;;;1.60;1.20;;;;;;;37.43;38.54;100611.55;658816;1277;139504;-89
2022/09/23 14:45:57;;;;;;;5.50;1.40;;;;;;;34.44;34.77;100598.23;659671;1277;140135;-91
2022/09/23 15:01:01;;;;;;;1.80;1.40;;;;;;;28.24;39.42;100572.04;659496;1277;138789;-90
2022/09/23 15:16:05;;;;;;;5.30;3.10;;;;;;;25.94;42.47;100563.06;659346;1277;140097;-88
2022/09/23 15:31:11;;;;;;;78.20;48.90;;;;;;;26.66;42.65;100554.66;659315;1277;140116;-88
2022/09/23 15:46:21;;;;;;;9.10;5.80;;;;;;;22.88;46.27;100555.87;660619;1277;139471;-88
2022/09/23 16:01:32;;;;;;;20.40;14.30;;;;;;;21.79;49.73;100548.89;659033;1277;139938;-87
2022/09/23 16:16:36;;;;;;;67.00;30.90;;;;;;;20.33;52.76;100549.46;659045;1277;1370211;-86
2022/09/23 16:31:40;;;;;;;35.40;17.90;;;;;;;18.68;55.85;100553.70;660557;1275;140618;-89
2022/09/23 16:46:44;;;;;;;54.60;33.40;;;;;;;16.51;59.48;100552.54;660493;1277;140988;-89
2022/09/23 17:17:11;;;;;;;639.00;318.90;;;;;;;14.29;66.34;100547.71;660686;1277;140086;-88
2022/09/23 17:32:16;;;;;;;100.10;64.00;;;;;;;13.78;69.04;100549.41;659039;1277;141065;-88
2022/09/23 17:47:22;;;;;;;284.80;126.70;;;;;;;13.69;71.43;100549.25;659795;1276;139419;-88
2022/09/23 18:02:26;;;;;;;52.60;30.80;;;;;;;13.83;73.35;100553.35;659946;1277;140365;-89
2022/09/23 18:17:29;;;;;;;53.10;34.70;;;;;;;13.49;76.29;100553.59;658745;1277;140840;-87
2022/09/23 18:32:32;;;;;;;72.60;41.60;;;;;;;13.54;78.36;100554.21;657682;1279;140450;-90
2022/09/23 19:03:00;;;;;;;43.50;21.80;;;;;;;13.35;81.50;100550.02;659221;1277;140424;-87
2022/09/23 19:18:04;;;;;;;132.00;61.50;;;;;;;13.27;81.87;100557.23;657321;1277;140403;-88
2022/09/23 19:33:08;;;;;;;87.90;42.30;;;;;;;13.18;82.48;100553.86;657193;1280;141031;-89
2022/09/23 19:48:12;;;;;;;89.20;43.70;;;;;;;13.07;83.59;100553.14;657013;1280;141920;-90
2022/09/23 20:03:19;;;;;;;79.50;40.60;;;;;;;13.00;83.67;100545.56;657609;1278;140941;-89
2022/09/23 20:18:23;;;;;;;63.90;33.90;;;;;;;12.79;85.43;100536.98;659394;1279;139925;-87
2022/09/23 20:33:29;;;;;;;52.30;27.60;;;;;;;12.50;86.10;100531.08;659420;1277;139184;-87
2022/09/23 20:48:33;;;;;;;39.20;20.30;;;;;;;12.05;86.14;100534.28;661259;1277;22703;-88
2022/09/23 21:03:41;;;;;;;84.90;35.70;;;;;;;11.67;86.71;100537.98;659505;1277;22619;-88
2022/09/23 21:18:46;;;;;;;27.60;14.30;;;;;;;11.29;88.57;100536.42;659779;1277;22545;-87
2022/09/23 21:33:54;;;;;;;39.40;20.60;;;;;;;11.10;89.04;100538.91;659940;1277;140473;-86
2022/09/23 21:49:01;;;;;;;33.40;15.80;;;;;;;10.66;89.86;100532.78;657984;1277;140684;-89
2022/09/23 22:04:13;;;;;;;26.10;12.60;;;;;;;10.55;90.47;100528.16;658051;1277;141068;-89
2022/09/23 22:19:17;;;;;;;21.90;11.70;;;;;;;10.46;91.16;100535.48;658024;1277;141221;-89
2022/09/23 22:34:26;;;;;;;21.00;11.30;;;;;;;10.30;90.99;100538.39;657529;1277;141167;-88
2022/09/23 22:49:53;;;;;;;20.30;10.90;;;;;;;10.12;92.02;100531.45;657169;1277;140968;-87
2022/09/23 23:28:13;;;;;;;18.60;10.30;;;;;;;9.65;93.83;100503.66;637387;1312;1338207;-87
2022/09/23 23:43:18;;;;;;;19.60;11.90;;;;;;;9.56;93.89;100505.23;651596;1289;139627;-88
2022/09/23 23:58:21;;;;;;;33.90;16.20;;;;;;;9.41;93.47;100503.48;656033;1280;139810;-89
